createdAt,value
2023-02-07T00:02:20.215Z,2.80
2023-02-07T00:05:24.667Z,2.70
2023-02-07T00:08:32.354Z,2.70
2023-02-07T00:11:39.991Z,2.70
2023-02-07T00:14:45.958Z,2.70
2023-02-07T00:17:49.837Z,2.70
2023-02-07T00:21:02.443Z,2.70
2023-02-07T00:24:08.960Z,2.70
2023-02-07T00:27:14.899Z,2.70
2023-02-07T00:30:19.281Z,2.70
2023-02-07T00:33:25.156Z,2.70
2023-02-07T00:36:29.720Z,2.70
2023-02-07T00:39:37.843Z,2.70
2023-02-07T00:42:41.707Z,2.70
2023-02-07T00:45:47.569Z,2.70
2023-02-07T00:48:51.857Z,2.70
2023-02-07T00:51:57.733Z,2.70
2023-02-07T00:55:03.511Z,2.70
2023-02-07T00:58:09.343Z,2.60
2023-02-07T01:01:13.435Z,2.60
2023-02-07T01:04:19.328Z,2.60
2023-02-07T01:07:24.298Z,2.60
2023-02-07T01:10:32.166Z,2.60
2023-02-07T01:13:36.320Z,2.60
2023-02-07T01:16:43.474Z,2.60
2023-02-07T01:19:48.398Z,2.60
2023-02-07T01:22:55.972Z,2.50
2023-02-07T01:26:01.837Z,2.50
2023-02-07T01:29:09.309Z,2.50
2023-02-07T01:32:13.145Z,2.40
2023-02-07T01:35:20.698Z,2.40
2023-02-07T01:38:24.556Z,2.40
2023-02-07T01:41:32.762Z,2.40
2023-02-07T01:45:03.011Z,2.30
2023-02-07T01:48:14.255Z,2.30
2023-02-07T01:51:18.766Z,2.30
2023-02-07T01:54:25.264Z,2.30
2023-02-07T01:57:32.213Z,2.30
2023-02-07T02:00:38.815Z,2.30
2023-02-07T02:03:48.432Z,2.20
2023-02-07T02:06:55.074Z,2.20
2023-02-07T02:09:58.988Z,2.20
2023-02-07T02:13:21.584Z,2.20
2023-02-07T02:16:32.265Z,2.10
2023-02-07T02:20:09.588Z,2.10
2023-02-07T02:23:25.660Z,2.10
2023-02-07T02:26:49.441Z,2.00
2023-02-07T02:30:25.626Z,2.10
2023-02-07T02:33:44.768Z,2.10
2023-02-07T02:36:58.217Z,2.00
2023-02-07T02:40:09.628Z,2.00
2023-02-07T02:43:20.943Z,2.00
2023-02-07T02:46:30.066Z,1.90
2023-02-07T02:49:38.955Z,1.90
2023-02-07T02:52:50.589Z,1.90
2023-02-07T02:56:27.669Z,1.90
2023-02-07T02:59:50.120Z,1.90
2023-02-07T03:03:12.708Z,1.80
2023-02-07T03:06:35.108Z,1.80
2023-02-07T03:09:47.127Z,1.70
2023-02-07T03:12:58.965Z,1.70
2023-02-07T03:16:13.043Z,1.70
2023-02-07T03:19:24.088Z,1.60
2023-02-07T03:22:31.520Z,1.60
2023-02-07T03:25:40.417Z,1.60
2023-02-07T03:28:47.427Z,1.50
2023-02-07T03:31:57.694Z,1.50
2023-02-07T03:35:07.217Z,1.50
2023-02-07T03:38:15.865Z,1.40
2023-02-07T03:41:28.184Z,1.40
2023-02-07T03:44:37.189Z,1.40
2023-02-07T03:47:41.292Z,1.30
2023-02-07T03:50:49.239Z,1.30
2023-02-07T03:53:55.025Z,1.30
2023-02-07T03:57:00.847Z,1.20
2023-02-07T04:00:05.477Z,1.20
2023-02-07T04:03:18.297Z,1.20
2023-02-07T04:06:22.585Z,1.10
2023-02-07T04:09:30.516Z,1.10
2023-02-07T04:12:34.653Z,1.10
2023-02-07T04:15:40.604Z,1.00
2023-02-07T04:18:45.700Z,1.00
2023-02-07T04:21:51.620Z,1.00
2023-02-07T04:24:57.412Z,1.00
2023-02-07T04:28:03.310Z,0.90
2023-02-07T04:31:07.180Z,0.90
2023-02-07T04:34:13.170Z,0.90
2023-02-07T04:37:17.069Z,0.80
2023-02-07T04:40:24.906Z,0.80
2023-02-07T04:43:28.755Z,0.80
2023-02-07T04:46:34.624Z,0.70
2023-02-07T04:49:38.477Z,0.70
2023-02-07T04:52:44.299Z,0.70
2023-02-07T04:55:52.394Z,0.70
2023-02-07T04:58:58.298Z,0.60
2023-02-07T05:02:02.195Z,0.60
2023-02-07T05:05:09.059Z,0.60
2023-02-07T05:08:14.058Z,0.60
2023-02-07T05:11:21.883Z,0.60
2023-02-07T05:14:25.899Z,0.50
2023-02-07T05:17:34.319Z,0.50
2023-02-07T05:20:38.167Z,0.50
2023-02-07T05:23:43.972Z,0.50
2023-02-07T05:26:49.775Z,0.40
2023-02-07T05:29:55.605Z,0.40
2023-02-07T05:33:05.258Z,0.40
2023-02-07T05:36:11.613Z,0.40
2023-02-07T05:39:15.521Z,0.40
2023-02-07T05:42:23.390Z,0.30
2023-02-07T05:45:27.541Z,0.30
2023-02-07T05:48:33.414Z,0.30
2023-02-07T05:51:37.275Z,0.30
2023-02-07T05:54:43.156Z,0.20
2023-02-07T05:57:48.938Z,0.20
2023-02-07T06:00:56.201Z,0.20
2023-02-07T06:04:00.208Z,0.20
2023-02-07T06:07:06.558Z,0.20
2023-02-07T06:10:11.378Z,0.10
2023-02-07T06:13:19.172Z,0.10
2023-02-07T06:16:23.032Z,0.10
2023-02-07T06:19:28.908Z,0.10
2023-02-07T06:22:32.883Z,0.00
2023-02-07T06:25:39.078Z,0.00
2023-02-07T06:28:45.238Z,0.00
2023-02-07T06:31:51.119Z,0.00
2023-02-07T06:34:55.059Z,0.00
2023-02-07T06:38:00.966Z,0.00
2023-02-07T06:41:05.068Z,-0.10
2023-02-07T06:44:13.010Z,-0.10
2023-02-07T06:47:19.046Z,-0.10
2023-02-07T06:50:24.936Z,-0.10
2023-02-07T06:53:29.734Z,-0.10
2023-02-07T06:56:35.903Z,-0.10
2023-02-07T06:59:41.655Z,-0.20
2023-02-07T07:02:47.469Z,-0.20
2023-02-07T07:05:51.323Z,-0.30
2023-02-07T07:08:57.148Z,-0.30
2023-02-07T07:12:01.034Z,-0.20
2023-02-07T07:15:10.159Z,-0.30
2023-02-07T07:18:14.024Z,-0.30
2023-02-07T07:21:19.840Z,-0.30
2023-02-07T07:24:23.905Z,-0.30
2023-02-07T07:27:29.714Z,-0.30
2023-02-07T07:30:35.891Z,-0.30
2023-02-07T07:33:41.744Z,-0.40
2023-02-07T07:36:45.590Z,-0.40
2023-02-07T07:39:51.451Z,-0.40
2023-02-07T07:42:55.306Z,-0.30
2023-02-07T07:46:12.155Z,-0.40
2023-02-07T07:49:16.091Z,-0.40
2023-02-07T07:52:22.821Z,-0.40
2023-02-07T07:55:26.707Z,-0.40
2023-02-07T07:58:32.786Z,-0.40
2023-02-07T08:01:38.658Z,-0.40
2023-02-07T08:04:44.531Z,-0.40
2023-02-07T08:07:48.477Z,-0.40
2023-02-07T08:10:54.324Z,-0.40
2023-02-07T08:13:58.176Z,-0.40
2023-02-07T08:17:06.031Z,-0.40
2023-02-07T08:20:11.852Z,-0.30
2023-02-07T08:23:17.981Z,-0.30
2023-02-07T08:26:21.859Z,-0.30
2023-02-07T08:29:27.737Z,-0.30
2023-02-07T08:32:33.494Z,-0.30
2023-02-07T08:35:39.318Z,-0.30
2023-02-07T08:38:43.203Z,-0.30
2023-02-07T08:41:49.125Z,-0.20
2023-02-07T08:44:53.098Z,-0.20
2023-02-07T08:48:00.994Z,-0.10
2023-02-07T08:51:07.390Z,-0.10
2023-02-07T08:54:13.767Z,0.00
2023-02-07T08:57:22.440Z,0.10
2023-02-07T09:00:28.308Z,0.20
2023-02-07T09:03:34.072Z,0.30
2023-02-07T09:06:41.125Z,0.40
2023-02-07T09:09:44.997Z,0.50
2023-02-07T09:12:50.787Z,0.70
2023-02-07T09:15:58.574Z,0.80
2023-02-07T09:19:06.384Z,0.90
2023-02-07T09:22:10.284Z,1.00
2023-02-07T09:25:16.286Z,1.10
2023-02-07T09:28:21.684Z,1.20
2023-02-07T09:31:27.676Z,1.30
2023-02-07T09:34:33.924Z,1.40
2023-02-07T09:37:48.726Z,1.50
2023-02-07T09:40:55.466Z,1.60
2023-02-07T09:44:08.960Z,1.70
2023-02-07T09:47:17.324Z,1.90
2023-02-07T09:50:29.969Z,1.90
2023-02-07T09:53:42.468Z,2.10
2023-02-07T09:56:49.202Z,2.20
2023-02-07T09:59:56.822Z,2.40
2023-02-07T10:03:10.370Z,2.60
2023-02-07T10:06:22.464Z,2.90
2023-02-07T10:09:30.549Z,3.00
2023-02-07T10:13:05.262Z,3.30
2023-02-07T10:16:25.464Z,3.50
2023-02-07T10:19:41.942Z,3.70
2023-02-07T10:22:57.776Z,3.90
2023-02-07T10:26:12.554Z,4.10
2023-02-07T10:29:40.513Z,4.30
2023-02-07T10:32:47.113Z,4.50
2023-02-07T10:35:54.618Z,4.70
2023-02-07T10:39:10.039Z,4.90
2023-02-07T10:42:19.616Z,5.10
2023-02-07T10:45:23.593Z,5.30
2023-02-07T10:48:29.666Z,5.40
2023-02-07T10:51:37.427Z,5.60
2023-02-07T10:54:54.739Z,5.70
2023-02-07T10:58:06.435Z,5.80
2023-02-07T11:01:21.993Z,6.00
2023-02-07T11:04:35.116Z,6.10
2023-02-07T11:07:47.602Z,6.20
2023-02-07T11:10:55.593Z,6.30
2023-02-07T11:14:05.463Z,6.40
2023-02-07T11:17:09.438Z,6.50
2023-02-07T11:20:22.149Z,6.60
2023-02-07T11:23:26.701Z,6.70
2023-02-07T11:26:37.076Z,6.80
2023-02-07T11:29:48.937Z,6.90
2023-02-07T11:33:00.254Z,7.00
2023-02-07T11:36:22.704Z,7.10
2023-02-07T11:39:28.324Z,7.10
2023-02-07T11:42:34.145Z,7.20
2023-02-07T11:45:42.850Z,7.20
2023-02-07T11:48:51.099Z,7.30
2023-02-07T11:52:00.372Z,7.30
2023-02-07T11:55:08.697Z,7.30
2023-02-07T11:58:24.945Z,7.30
2023-02-07T12:01:32.704Z,7.30
2023-02-07T12:04:40.705Z,7.30
2023-02-07T12:07:47.965Z,7.30
2023-02-07T12:10:57.485Z,7.30
2023-02-07T12:14:10.302Z,7.20
2023-02-07T12:17:21.930Z,7.10
2023-02-07T12:20:30.171Z,7.10
2023-02-07T12:23:43.773Z,7.00
2023-02-07T12:26:54.197Z,6.90
2023-02-07T12:30:07.789Z,6.80
2023-02-07T12:33:20.687Z,6.70
2023-02-07T12:36:31.307Z,6.70
2023-02-07T12:39:41.058Z,6.60
2023-02-07T12:42:53.248Z,6.50
2023-02-07T12:46:14.137Z,6.50
2023-02-07T12:49:34.553Z,6.40
2023-02-07T12:52:52.607Z,6.30
2023-02-07T12:56:07.008Z,6.30
2023-02-07T12:59:21.964Z,6.20
2023-02-07T13:02:51.362Z,6.10
2023-02-07T13:06:06.170Z,6.10
2023-02-07T13:09:20.316Z,6.10
2023-02-07T13:12:30.658Z,6.00
2023-02-07T13:15:42.883Z,6.00
2023-02-07T13:18:56.680Z,5.90
2023-02-07T13:22:08.237Z,5.90
2023-02-07T13:25:19.723Z,5.90
2023-02-07T13:28:30.294Z,5.80
2023-02-07T13:31:41.115Z,5.80
2023-02-07T13:34:54.924Z,5.80
2023-02-07T13:38:08.816Z,5.70
2023-02-07T13:41:21.050Z,5.70
2023-02-07T13:44:32.925Z,5.70
2023-02-07T13:47:45.035Z,5.60
2023-02-07T13:51:00.709Z,5.60
2023-02-07T13:54:28.659Z,5.60
2023-02-07T13:57:57.609Z,5.50
2023-02-07T14:01:16.729Z,5.50
2023-02-07T14:04:21.989Z,5.50
2023-02-07T14:07:34.922Z,5.50
2023-02-07T14:10:48.350Z,5.40
2023-02-07T14:14:12.728Z,5.40
2023-02-07T14:17:38.441Z,5.40
2023-02-07T14:20:51.986Z,5.40
2023-02-07T14:24:37.687Z,5.40
2023-02-07T14:28:10.111Z,5.30
2023-02-07T14:31:23.064Z,5.30
2023-02-07T14:34:32.318Z,5.30
2023-02-07T14:37:41.664Z,5.30
2023-02-07T14:41:09.695Z,5.30
2023-02-07T14:44:26.948Z,5.20
2023-02-07T14:47:33.556Z,5.30
2023-02-07T14:50:38.197Z,5.20
2023-02-07T14:53:45.686Z,5.20
2023-02-07T14:57:01.376Z,5.20
2023-02-07T15:00:25.574Z,5.20
2023-02-07T15:03:34.590Z,5.20
2023-02-07T15:06:43.260Z,5.20
2023-02-07T15:09:47.130Z,5.20
2023-02-07T15:12:53.768Z,5.10
2023-02-07T15:16:03.232Z,5.10
2023-02-07T15:19:15.974Z,5.10
2023-02-07T15:22:27.889Z,5.10
2023-02-07T15:25:33.657Z,5.10
2023-02-07T15:28:37.597Z,5.10
2023-02-07T15:31:45.808Z,5.10
2023-02-07T15:34:50.228Z,5.10
2023-02-07T15:37:57.122Z,5.00
2023-02-07T15:41:01.758Z,5.00
2023-02-07T15:44:20.496Z,5.00
2023-02-07T15:47:38.349Z,5.00
2023-02-07T15:50:44.251Z,5.00
2023-02-07T15:53:52.220Z,5.00
2023-02-07T15:57:01.108Z,4.90
2023-02-07T16:00:08.432Z,4.90
2023-02-07T16:03:25.030Z,4.90
2023-02-07T16:06:30.380Z,4.90
2023-02-07T16:09:42.046Z,4.90
2023-02-07T16:12:49.235Z,4.90
2023-02-07T16:15:57.279Z,4.90
2023-02-07T16:19:09.949Z,4.80
2023-02-07T16:22:20.539Z,4.80
2023-02-07T16:25:28.092Z,4.80
2023-02-07T16:28:34.350Z,4.80
2023-02-07T16:31:38.577Z,4.70
2023-02-07T16:34:59.003Z,4.70
2023-02-07T16:38:03.648Z,4.60
2023-02-07T16:41:20.161Z,4.60
2023-02-07T16:44:27.594Z,4.60
2023-02-07T16:47:33.453Z,4.60
2023-02-07T16:50:39.431Z,4.60
2023-02-07T16:53:45.659Z,4.50
2023-02-07T16:56:52.189Z,4.50
2023-02-07T16:59:58.018Z,4.40
2023-02-07T17:03:01.601Z,4.40
2023-02-07T17:06:14.433Z,4.30
2023-02-07T17:09:20.666Z,4.30
2023-02-07T17:12:26.617Z,4.20
2023-02-07T17:15:30.580Z,4.20
2023-02-07T17:18:36.433Z,4.10
2023-02-07T17:21:42.868Z,4.10
2023-02-07T17:24:48.708Z,4.00
2023-02-07T17:27:52.415Z,4.00
2023-02-07T17:30:58.315Z,3.90
2023-02-07T17:34:01.932Z,3.80
2023-02-07T17:37:13.267Z,3.80
2023-02-07T17:40:27.451Z,3.70
2023-02-07T17:43:33.368Z,3.60
2023-02-07T17:46:37.248Z,3.60
2023-02-07T17:49:43.131Z,3.60
2023-02-07T17:52:48.893Z,3.50
2023-02-07T17:55:54.783Z,3.40
2023-02-07T17:59:01.681Z,3.40
2023-02-07T18:02:07.946Z,3.30
2023-02-07T18:05:12.293Z,3.30
2023-02-07T18:08:20.071Z,3.20
2023-02-07T18:11:23.882Z,3.10
2023-02-07T18:14:29.751Z,3.10
2023-02-07T18:17:33.335Z,3.00
2023-02-07T18:20:39.529Z,3.00
2023-02-07T18:23:45.646Z,2.90
2023-02-07T18:26:52.709Z,2.90
2023-02-07T18:29:56.629Z,2.80
2023-02-07T18:33:02.583Z,2.80
2023-02-07T18:36:08.018Z,2.70
2023-02-07T18:39:15.917Z,2.70
2023-02-07T18:42:21.123Z,2.60
2023-02-07T18:45:26.926Z,2.70
2023-02-07T18:48:30.559Z,2.60
2023-02-07T18:51:36.443Z,2.50
2023-02-07T18:54:43.951Z,2.50
2023-02-07T18:57:49.800Z,2.40
2023-02-07T19:00:53.647Z,2.40
2023-02-07T19:04:00.934Z,2.30
2023-02-07T19:07:06.551Z,2.30
2023-02-07T19:10:15.859Z,2.30
2023-02-07T19:13:19.717Z,2.20
2023-02-07T19:16:26.288Z,2.20
2023-02-07T19:19:31.942Z,2.10
2023-02-07T19:22:37.804Z,2.10
2023-02-07T19:25:49.840Z,2.00
2023-02-07T19:28:55.897Z,2.00
2023-02-07T19:32:03.019Z,2.00
2023-02-07T19:35:09.224Z,1.90
2023-02-07T19:38:13.161Z,1.90
2023-02-07T19:41:21.626Z,1.90
2023-02-07T19:44:25.464Z,1.80
2023-02-07T19:47:31.342Z,1.80
2023-02-07T19:50:35.156Z,1.80
2023-02-07T19:53:43.374Z,1.70
2023-02-07T19:56:51.568Z,1.70
2023-02-07T19:59:57.530Z,1.70
2023-02-07T20:03:01.393Z,1.70
2023-02-07T20:06:12.079Z,1.60
2023-02-07T20:09:16.153Z,1.50
2023-02-07T20:12:24.000Z,1.60
2023-02-07T20:15:27.804Z,1.60
2023-02-07T20:18:33.707Z,1.50
2023-02-07T20:21:38.898Z,1.50
2023-02-07T20:24:44.936Z,1.40
2023-02-07T20:27:50.733Z,1.40
2023-02-07T20:30:56.677Z,1.40
2023-02-07T20:34:01.484Z,1.40
2023-02-07T20:37:07.382Z,1.30
2023-02-07T20:40:12.490Z,1.30
2023-02-07T20:43:20.593Z,1.30
2023-02-07T20:46:24.483Z,1.30
2023-02-07T20:49:32.681Z,1.20
2023-02-07T20:52:36.948Z,1.20
2023-02-07T20:55:42.790Z,1.20
2023-02-07T20:58:48.573Z,1.10
2023-02-07T21:01:54.942Z,1.10
2023-02-07T21:04:58.834Z,1.10
2023-02-07T21:08:04.654Z,1.10
2023-02-07T21:11:10.376Z,1.10
2023-02-07T21:14:21.795Z,1.00
2023-02-07T21:17:25.617Z,1.00
2023-02-07T21:20:32.608Z,1.00
2023-02-07T21:23:36.498Z,0.90
2023-02-07T21:26:44.692Z,0.90
2023-02-07T21:29:50.409Z,0.90
2023-02-07T21:32:56.866Z,0.90
2023-02-07T21:36:11.296Z,0.80
2023-02-07T21:39:17.863Z,0.80
2023-02-07T21:42:21.692Z,0.80
2023-02-07T21:45:29.644Z,0.80
2023-02-07T21:48:35.064Z,0.80
2023-02-07T21:51:41.236Z,0.70
2023-02-07T21:54:45.212Z,0.70
2023-02-07T21:57:51.032Z,0.70
2023-02-07T22:00:57.007Z,0.70
2023-02-07T22:04:04.426Z,0.70
2023-02-07T22:07:08.629Z,0.60
2023-02-07T22:10:14.513Z,0.60
2023-02-07T22:13:18.336Z,0.60
2023-02-07T22:16:27.688Z,0.60
2023-02-07T22:19:31.884Z,0.50
2023-02-07T22:22:37.670Z,0.50
2023-02-07T22:25:42.324Z,0.50
2023-02-07T22:28:49.030Z,0.50
2023-02-07T22:31:54.888Z,0.40
2023-02-07T22:35:00.752Z,0.40
2023-02-07T22:38:05.492Z,0.40
2023-02-07T22:41:11.382Z,0.40
2023-02-07T22:44:15.304Z,0.40
2023-02-07T22:47:23.089Z,0.30
2023-02-07T22:50:27.830Z,0.30
2023-02-07T22:56:52.163Z,0.30
2023-02-07T23:00:00.171Z,0.30
2023-02-07T23:03:06.072Z,0.20
2023-02-07T23:06:11.886Z,0.20
2023-02-07T23:09:16.011Z,0.20
2023-02-07T23:12:21.924Z,0.20
2023-02-07T23:15:27.915Z,0.20
2023-02-07T23:18:35.669Z,0.10
2023-02-07T23:21:39.524Z,0.10
2023-02-07T23:24:45.458Z,0.10
2023-02-07T23:27:49.378Z,0.10
2023-02-07T23:30:55.479Z,0.10
2023-02-07T23:34:01.551Z,0.10
2023-02-07T23:37:07.418Z,0.00
2023-02-07T23:40:12.612Z,0.00
2023-02-07T23:43:18.633Z,0.00
2023-02-07T23:46:22.517Z,-0.10
2023-02-07T23:49:30.322Z,-0.10
2023-02-07T23:52:34.340Z,-0.10
2023-02-07T23:55:42.986Z,-0.10
2023-02-07T23:58:46.959Z,-0.10
